sensor_id;sensor_type;location;lat;lon;timestamp;pressure;altitude;pressure_sealevel;temperature;humidity
29385;BME280;16367;48.736;9.218;2023-12-28T00:01:27;-23418.34;;;7.90;54.76
29385;BME280;16367;48.736;9.218;2023-12-28T00:03:29;-23423.09;;;8.05;54.91
29385;BME280;16367;48.736;9.218;2023-12-28T00:05:31;-23422.16;;;8.02;54.70
29385;BME280;16367;48.736;9.218;2023-12-28T00:09:46;-23414.22;;;7.77;54.23
29385;BME280;16367;48.736;9.218;2023-12-28T00:11:48;-23411.97;;;7.70;54.81
29385;BME280;16367;48.736;9.218;2023-12-28T00:13:49;-23414.22;;;7.77;54.66
29385;BME280;16367;48.736;9.218;2023-12-28T00:15:51;-23411.34;;;7.68;54.88
29385;BME280;16367;48.736;9.218;2023-12-28T00:17:52;-23413.09;;;7.74;55.00
29385;BME280;16367;48.736;9.218;2023-12-28T00:19:53;-23412.63;;;7.72;54.96
29385;BME280;16367;48.736;9.218;2023-12-28T00:21:55;-23411.50;;;7.69;55.18
29385;BME280;16367;48.736;9.218;2023-12-28T00:23:57;-23417.38;;;7.87;54.43
29385;BME280;16367;48.736;9.218;2023-12-28T00:25:59;-23418.50;;;7.91;54.20
29385;BME280;16367;48.736;9.218;2023-12-28T00:32:14;-23419.28;;;7.93;54.44
29385;BME280;16367;48.736;9.218;2023-12-28T00:34:15;-23420.88;;;7.98;53.64
29385;BME280;16367;48.736;9.218;2023-12-28T00:36:16;-23427.22;;;8.18;53.07
29385;BME280;16367;48.736;9.218;2023-12-28T00:38:18;-23425.00;;;8.11;53.05
29385;BME280;16367;48.736;9.218;2023-12-28T00:40:19;-23428.81;;;8.23;52.89
29385;BME280;16367;48.736;9.218;2023-12-28T00:42:22;-23425.78;;;8.14;53.58
29385;BME280;16367;48.736;9.218;2023-12-28T00:44:24;-23425.31;;;8.12;53.79
29385;BME280;16367;48.736;9.218;2023-12-28T00:46:25;-23428.97;;;8.24;52.82
29385;BME280;16367;48.736;9.218;2023-12-28T00:48:27;-23429.44;;;8.25;52.68
29385;BME280;16367;48.736;9.218;2023-12-28T00:56:42;-23430.41;;;8.29;52.58
29385;BME280;16367;48.736;9.218;2023-12-28T00:58:43;-23435.97;;;8.46;52.33
29385;BME280;16367;48.736;9.218;2023-12-28T01:00:45;-23437.72;;;8.52;52.46
29385;BME280;16367;48.736;9.218;2023-12-28T01:02:46;-23434.38;;;8.41;52.10
29385;BME280;16367;48.736;9.218;2023-12-28T01:04:47;-23432.00;;;8.34;52.69
29385;BME280;16367;48.736;9.218;2023-12-28T01:06:49;-23430.56;;;8.29;52.59
29385;BME280;16367;48.736;9.218;2023-12-28T01:08:50;-23428.19;;;8.21;52.78
29385;BME280;16367;48.736;9.218;2023-12-28T01:10:51;-23433.59;;;8.39;52.18
29385;BME280;16367;48.736;9.218;2023-12-28T01:12:53;-23428.66;;;8.23;52.80
29385;BME280;16367;48.736;9.218;2023-12-28T01:19:08;-23418.66;;;7.91;53.86
29385;BME280;16367;48.736;9.218;2023-12-28T01:21:09;-23417.84;;;7.89;53.99
29385;BME280;16367;48.736;9.218;2023-12-28T01:23:11;-23419.59;;;7.94;54.08
29385;BME280;16367;48.736;9.218;2023-12-28T01:25:13;-23415.63;;;7.82;55.17
29385;BME280;16367;48.736;9.218;2023-12-28T01:27:14;-23415.00;;;7.80;54.42
29385;BME280;16367;48.736;9.218;2023-12-28T01:29:15;-23413.56;;;7.75;55.30
29385;BME280;16367;48.736;9.218;2023-12-28T01:31:16;-23418.50;;;7.91;54.36
29385;BME280;16367;48.736;9.218;2023-12-28T01:33:18;-23417.53;;;7.88;54.23
29385;BME280;16367;48.736;9.218;2023-12-28T01:35:20;-23422.16;;;8.02;53.44
29385;BME280;16367;48.736;9.218;2023-12-28T01:43:36;-23428.81;;;8.23;53.67
29385;BME280;16367;48.736;9.218;2023-12-28T01:45:37;-23425.78;;;8.14;54.17
29385;BME280;16367;48.736;9.218;2023-12-28T01:47:39;-23427.38;;;8.19;53.17
29385;BME280;16367;48.736;9.218;2023-12-28T01:49:41;-23430.88;;;8.30;53.58
29385;BME280;16367;48.736;9.218;2023-12-28T01:51:44;-23429.44;;;8.25;53.70
29385;BME280;16367;48.736;9.218;2023-12-28T01:53:47;-23430.25;;;8.28;53.38
29385;BME280;16367;48.736;9.218;2023-12-28T01:55:51;-23431.34;;;8.32;53.74
29385;BME280;16367;48.736;9.218;2023-12-28T01:57:53;-23434.22;;;8.41;52.93
29385;BME280;16367;48.736;9.218;2023-12-28T01:59:57;-23435.97;;;8.46;53.39
29385;BME280;16367;48.736;9.218;2023-12-28T02:08:08;-23441.84;;;8.65;52.15
29385;BME280;16367;48.736;9.218;2023-12-28T02:10:10;-23438.66;;;8.55;53.41
29385;BME280;16367;48.736;9.218;2023-12-28T02:12:11;-23439.78;;;8.58;52.96
29385;BME280;16367;48.736;9.218;2023-12-28T02:14:13;-23441.03;;;8.62;52.23
29385;BME280;16367;48.736;9.218;2023-12-28T02:16:18;-23435.34;;;8.44;53.71
29385;BME280;16367;48.736;9.218;2023-12-28T02:18:23;-23434.22;;;8.41;53.72
29385;BME280;16367;48.736;9.218;2023-12-28T02:20:27;-23430.72;;;8.30;54.01
29385;BME280;16367;48.736;9.218;2023-12-28T02:22:31;-23429.44;;;8.25;54.12
29385;BME280;16367;48.736;9.218;2023-12-28T02:26:46;-23427.84;;;8.20;54.07
29385;BME280;16367;48.736;9.218;2023-12-28T02:28:48;-23426.91;;;8.17;54.19
29385;BME280;16367;48.736;9.218;2023-12-28T02:30:50;-23431.69;;;8.33;52.91
29385;BME280;16367;48.736;9.218;2023-12-28T02:33:02;-23431.34;;;8.32;53.85
29385;BME280;16367;48.736;9.218;2023-12-28T02:35:14;-23425.63;;;8.13;54.33
29385;BME280;16367;48.736;9.218;2023-12-28T02:37:17;-23425.47;;;8.13;54.66
29385;BME280;16367;48.736;9.218;2023-12-28T02:39:20;-23422.78;;;8.04;54.48
29385;BME280;16367;48.736;9.218;2023-12-28T02:41:24;-23423.72;;;8.07;54.49
29385;BME280;16367;48.736;9.218;2023-12-28T02:43:27;-23423.88;;;8.08;54.23
29385;BME280;16367;48.736;9.218;2023-12-28T02:48:42;-23421.50;;;8.00;54.59
29385;BME280;16367;48.736;9.218;2023-12-28T02:50:44;-23418.97;;;7.92;55.14
29385;BME280;16367;48.736;9.218;2023-12-28T02:52:45;-23420.25;;;7.96;55.54
29385;BME280;16367;48.736;9.218;2023-12-28T02:54:46;-23422.47;;;8.03;55.75
29385;BME280;16367;48.736;9.218;2023-12-28T02:56:48;-23434.38;;;8.41;53.77
29385;BME280;16367;48.736;9.218;2023-12-28T02:58:49;-23427.38;;;8.19;55.03
29385;BME280;16367;48.736;9.218;2023-12-28T03:00:50;-23436.28;;;8.47;53.41
29385;BME280;16367;48.736;9.218;2023-12-28T03:02:52;-23432.63;;;8.36;53.30
29385;BME280;16367;48.736;9.218;2023-12-28T03:04:54;-23430.72;;;8.30;54.68
29385;BME280;16367;48.736;9.218;2023-12-28T03:09:54;-23433.91;;;8.40;53.55
29385;BME280;16367;48.736;9.218;2023-12-28T03:11:55;-23433.28;;;8.38;53.50
29385;BME280;16367;48.736;9.218;2023-12-28T03:13:57;-23432.63;;;8.36;54.20
29385;BME280;16367;48.736;9.218;2023-12-28T03:15:58;-23433.75;;;8.39;53.80
29385;BME280;16367;48.736;9.218;2023-12-28T03:18:00;-23441.53;;;8.64;52.58
29385;BME280;16367;48.736;9.218;2023-12-28T03:20:02;-23439.59;;;8.58;53.66
29385;BME280;16367;48.736;9.218;2023-12-28T03:22:04;-23436.91;;;8.49;54.29
29385;BME280;16367;48.736;9.218;2023-12-28T03:24:05;-23438.03;;;8.53;53.45
29385;BME280;16367;48.736;9.218;2023-12-28T03:26:07;-23435.47;;;8.45;53.80
29385;BME280;16367;48.736;9.218;2023-12-28T03:34:18;-23436.59;;;8.48;53.77
29385;BME280;16367;48.736;9.218;2023-12-28T03:36:20;-23436.75;;;8.49;53.41
29385;BME280;16367;48.736;9.218;2023-12-28T03:38:21;-23436.13;;;8.47;53.99
29385;BME280;16367;48.736;9.218;2023-12-28T03:40:23;-23437.22;;;8.50;53.83
29385;BME280;16367;48.736;9.218;2023-12-28T03:42:24;-23438.97;;;8.56;53.36
29385;BME280;16367;48.736;9.218;2023-12-28T03:44:25;-23437.72;;;8.52;53.28
29385;BME280;16367;48.736;9.218;2023-12-28T03:46:27;-23442.78;;;8.68;52.82
29385;BME280;16367;48.736;9.218;2023-12-28T03:48:28;-23445.16;;;8.75;53.21
29385;BME280;16367;48.736;9.218;2023-12-28T03:50:30;-23445.31;;;8.76;52.85
29385;BME280;16367;48.736;9.218;2023-12-28T03:55:59;-23434.84;;;8.43;53.80
29385;BME280;16367;48.736;9.218;2023-12-28T03:58:01;-23432.00;;;8.34;54.15
29385;BME280;16367;48.736;9.218;2023-12-28T04:00:03;-23435.16;;;8.44;54.59
29385;BME280;16367;48.736;9.218;2023-12-28T04:02:05;-23431.34;;;8.32;55.21
29385;BME280;16367;48.736;9.218;2023-12-28T04:04:07;-23430.25;;;8.28;54.38
29385;BME280;16367;48.736;9.218;2023-12-28T04:06:09;-23430.41;;;8.29;54.86
29385;BME280;16367;48.736;9.218;2023-12-28T04:08:10;-23429.28;;;8.25;55.20
29385;BME280;16367;48.736;9.218;2023-12-28T04:10:12;-23432.31;;;8.35;54.83
29385;BME280;16367;48.736;9.218;2023-12-28T04:12:14;-23430.41;;;8.29;55.81
29385;BME280;16367;48.736;9.218;2023-12-28T04:18:59;-23442.94;;;8.68;54.56
29385;BME280;16367;48.736;9.218;2023-12-28T04:21:01;-23443.75;;;8.71;53.92
29385;BME280;16367;48.736;9.218;2023-12-28T04:23:02;-23452.47;;;8.98;52.75
29385;BME280;16367;48.736;9.218;2023-12-28T04:25:04;-23457.06;;;9.13;52.51
29385;BME280;16367;48.736;9.218;2023-12-28T04:27:05;-23463.25;;;9.33;51.30
29385;BME280;16367;48.736;9.218;2023-12-28T04:29:07;-23465.31;;;9.39;51.19
29385;BME280;16367;48.736;9.218;2023-12-28T04:31:08;-23465.63;;;9.40;51.03
29385;BME280;16367;48.736;9.218;2023-12-28T04:33:10;-23467.84;;;9.47;50.89
29385;BME280;16367;48.736;9.218;2023-12-28T04:35:12;-23471.66;;;9.59;50.54
29385;BME280;16367;48.736;9.218;2023-12-28T04:41:27;-23476.88;;;9.76;50.51
29385;BME280;16367;48.736;9.218;2023-12-28T04:43:28;-23474.50;;;9.68;50.57
29385;BME280;16367;48.736;9.218;2023-12-28T04:45:30;-23477.53;;;9.78;50.70
29385;BME280;16367;48.736;9.218;2023-12-28T04:47:31;-23481.81;;;9.92;50.42
29385;BME280;16367;48.736;9.218;2023-12-28T04:49:33;-23478.94;;;9.83;51.31
29385;BME280;16367;48.736;9.218;2023-12-28T04:51:34;-23480.53;;;9.88;50.90
29385;BME280;16367;48.736;9.218;2023-12-28T04:53:35;-23482.75;;;9.95;51.27
29385;BME280;16367;48.736;9.218;2023-12-28T04:55:37;-23481.81;;;9.92;51.73
29385;BME280;16367;48.736;9.218;2023-12-28T04:57:40;-23480.22;;;9.87;51.52
29385;BME280;16367;48.736;9.218;2023-12-28T05:03:55;-23476.09;;;9.73;52.02
29385;BME280;16367;48.736;9.218;2023-12-28T05:05:56;-23474.81;;;9.69;52.15
29385;BME280;16367;48.736;9.218;2023-12-28T05:07:58;-23475.16;;;9.70;51.85
29385;BME280;16367;48.736;9.218;2023-12-28T05:10:00;-23474.66;;;9.69;52.77
29385;BME280;16367;48.736;9.218;2023-12-28T05:12:02;-23472.28;;;9.61;52.60
29385;BME280;16367;48.736;9.218;2023-12-28T05:14:03;-23470.06;;;9.54;53.10
29385;BME280;16367;48.736;9.218;2023-12-28T05:16:05;-23469.13;;;9.51;53.43
29385;BME280;16367;48.736;9.218;2023-12-28T05:18:07;-23470.69;;;9.56;52.79
29385;BME280;16367;48.736;9.218;2023-12-28T05:20:11;-23473.88;;;9.66;53.86
29385;BME280;16367;48.736;9.218;2023-12-28T05:26:55;-23473.56;;;9.65;53.89
29385;BME280;16367;48.736;9.218;2023-12-28T05:28:56;-23472.75;;;9.63;53.38
29385;BME280;16367;48.736;9.218;2023-12-28T05:30:57;-23472.75;;;9.63;54.13
29385;BME280;16367;48.736;9.218;2023-12-28T05:33:00;-23475.78;;;9.72;53.93
29385;BME280;16367;48.736;9.218;2023-12-28T05:35:01;-23475.31;;;9.71;54.33
29385;BME280;16367;48.736;9.218;2023-12-28T05:37:04;-23477.03;;;9.76;54.42
29385;BME280;16367;48.736;9.218;2023-12-28T05:39:05;-23479.75;;;9.85;53.90
29385;BME280;16367;48.736;9.218;2023-12-28T05:41:09;-23481.00;;;9.89;54.34
29385;BME280;16367;48.736;9.218;2023-12-28T05:43:11;-23481.00;;;9.89;54.03
29385;BME280;16367;48.736;9.218;2023-12-28T05:51:25;-23478.78;;;9.82;55.08
29385;BME280;16367;48.736;9.218;2023-12-28T05:53:27;-23477.03;;;9.76;55.88
29385;BME280;16367;48.736;9.218;2023-12-28T05:55:30;-23476.88;;;9.76;55.17
29385;BME280;16367;48.736;9.218;2023-12-28T05:57:31;-23473.56;;;9.65;55.70
29385;BME280;16367;48.736;9.218;2023-12-28T05:59:32;-23476.41;;;9.74;55.16
29385;BME280;16367;48.736;9.218;2023-12-28T06:01:41;-23474.19;;;9.67;55.74
29385;BME280;16367;48.736;9.218;2023-12-28T06:03:43;-23475.16;;;9.70;55.77
29385;BME280;16367;48.736;9.218;2023-12-28T06:05:44;-23473.56;;;9.65;56.41
29385;BME280;16367;48.736;9.218;2023-12-28T06:07:48;-23473.88;;;9.66;56.04
29385;BME280;16367;48.736;9.218;2023-12-28T06:12:07;-23474.66;;;9.69;56.30
29385;BME280;16367;48.736;9.218;2023-12-28T06:14:08;-23475.47;;;9.71;56.60
29385;BME280;16367;48.736;9.218;2023-12-28T06:16:09;-23473.56;;;9.65;57.05
29385;BME280;16367;48.736;9.218;2023-12-28T06:18:11;-23472.59;;;9.62;56.61
29385;BME280;16367;48.736;9.218;2023-12-28T06:20:13;-23475.31;;;9.71;56.86
29385;BME280;16367;48.736;9.218;2023-12-28T06:22:14;-23476.41;;;9.74;56.21
29385;BME280;16367;48.736;9.218;2023-12-28T06:24:16;-23477.53;;;9.78;57.06
29385;BME280;16367;48.736;9.218;2023-12-28T06:26:17;-23476.41;;;9.74;57.37
29385;BME280;16367;48.736;9.218;2023-12-28T06:28:22;-23478.16;;;9.80;57.06
29385;BME280;16367;48.736;9.218;2023-12-28T06:32:37;-23472.91;;;9.63;57.68
29385;BME280;16367;48.736;9.218;2023-12-28T06:34:39;-23471.34;;;9.58;58.45
29385;BME280;16367;48.736;9.218;2023-12-28T06:36:40;-23474.19;;;9.67;57.55
29385;BME280;16367;48.736;9.218;2023-12-28T06:38:44;-23476.25;;;9.74;57.71
29385;BME280;16367;48.736;9.218;2023-12-28T06:40:45;-23475.31;;;9.71;58.16
29385;BME280;16367;48.736;9.218;2023-12-28T06:42:46;-23472.75;;;9.63;57.56
29385;BME280;16367;48.736;9.218;2023-12-28T06:44:48;-23471.66;;;9.59;58.04
29385;BME280;16367;48.736;9.218;2023-12-28T06:46:49;-23471.66;;;9.59;58.38
29385;BME280;16367;48.736;9.218;2023-12-28T06:48:52;-23470.06;;;9.54;58.86
29385;BME280;16367;48.736;9.218;2023-12-28T06:55:07;-23472.75;;;9.63;59.99
29385;BME280;16367;48.736;9.218;2023-12-28T06:57:08;-23471.97;;;9.60;60.01
29385;BME280;16367;48.736;9.218;2023-12-28T06:59:10;-23471.03;;;9.57;60.32
29385;BME280;16367;48.736;9.218;2023-12-28T07:01:12;-23471.66;;;9.59;59.41
29385;BME280;16367;48.736;9.218;2023-12-28T07:03:14;-23470.06;;;9.54;60.35
29385;BME280;16367;48.736;9.218;2023-12-28T07:05:16;-23468.81;;;9.50;60.10
29385;BME280;16367;48.736;9.218;2023-12-28T07:07:17;-23468.63;;;9.50;60.89
29385;BME280;16367;48.736;9.218;2023-12-28T07:09:18;-23468.81;;;9.50;60.85
29385;BME280;16367;48.736;9.218;2023-12-28T07:11:21;-23472.59;;;9.62;61.08
29385;BME280;16367;48.736;9.218;2023-12-28T07:18:05;-23472.28;;;9.61;61.81
29385;BME280;16367;48.736;9.218;2023-12-28T07:20:08;-23470.69;;;9.56;62.46
29385;BME280;16367;48.736;9.218;2023-12-28T07:22:11;-23471.19;;;9.58;62.10
29385;BME280;16367;48.736;9.218;2023-12-28T07:24:12;-23475.63;;;9.72;62.38
29385;BME280;16367;48.736;9.218;2023-12-28T07:26:14;-23473.56;;;9.65;62.77
29385;BME280;16367;48.736;9.218;2023-12-28T07:28:16;-23475.78;;;9.72;62.64
29385;BME280;16367;48.736;9.218;2023-12-28T07:30:17;-23475.31;;;9.71;63.09
29385;BME280;16367;48.736;9.218;2023-12-28T07:32:19;-23474.19;;;9.67;63.11
29385;BME280;16367;48.736;9.218;2023-12-28T07:34:21;-23476.72;;;9.75;62.90
29385;BME280;16367;48.736;9.218;2023-12-28T07:40:05;-23471.81;;;9.60;63.75
29385;BME280;16367;48.736;9.218;2023-12-28T07:42:07;-23471.34;;;9.58;63.95
29385;BME280;16367;48.736;9.218;2023-12-28T07:44:08;-23472.13;;;9.61;64.11
29385;BME280;16367;48.736;9.218;2023-12-28T07:46:09;-23470.69;;;9.56;64.59
29385;BME280;16367;48.736;9.218;2023-12-28T07:48:11;-23471.50;;;9.59;64.04
29385;BME280;16367;48.736;9.218;2023-12-28T07:50:12;-23470.38;;;9.55;64.55
29385;BME280;16367;48.736;9.218;2023-12-28T07:52:14;-23471.19;;;9.58;64.22
29385;BME280;16367;48.736;9.218;2023-12-28T07:54:15;-23471.97;;;9.60;64.24
29385;BME280;16367;48.736;9.218;2023-12-28T07:56:17;-23472.75;;;9.63;64.26
29385;BME280;16367;48.736;9.218;2023-12-28T07:58:19;-23470.06;;;9.54;64.56
29385;BME280;16367;48.736;9.218;2023-12-28T08:01:00;-23469.13;;;9.51;65.24
29385;BME280;16367;48.736;9.218;2023-12-28T08:03:02;-23466.91;;;9.44;65.72
29385;BME280;16367;48.736;9.218;2023-12-28T08:05:05;-23467.53;;;9.46;66.48
29385;BME280;16367;48.736;9.218;2023-12-28T08:07:06;-23465.16;;;9.39;66.86
29385;BME280;16367;48.736;9.218;2023-12-28T08:09:09;-23465.94;;;9.41;66.80
29385;BME280;16367;48.736;9.218;2023-12-28T08:11:10;-23465.00;;;9.38;66.79
29385;BME280;16367;48.736;9.218;2023-12-28T08:13:12;-23466.44;;;9.43;66.45
29385;BME280;16367;48.736;9.218;2023-12-28T08:15:14;-23462.31;;;9.30;67.64
29385;BME280;16367;48.736;9.218;2023-12-28T08:17:16;-23467.84;;;9.47;67.22
29385;BME280;16367;48.736;9.218;2023-12-28T08:25:31;-23468.00;;;9.48;67.50
29385;BME280;16367;48.736;9.218;2023-12-28T08:27:33;-23468.81;;;9.50;67.56
29385;BME280;16367;48.736;9.218;2023-12-28T08:29:34;-23470.38;;;9.55;67.35
29385;BME280;16367;48.736;9.218;2023-12-28T08:31:35;-23471.03;;;9.57;67.45
29385;BME280;16367;48.736;9.218;2023-12-28T08:33:37;-23479.09;;;9.83;66.67
29385;BME280;16367;48.736;9.218;2023-12-28T08:35:40;-23481.47;;;9.91;66.95
29385;BME280;16367;48.736;9.218;2023-12-28T08:37:41;-23473.41;;;9.65;67.50
29385;BME280;16367;48.736;9.218;2023-12-28T08:39:46;-23480.53;;;9.88;66.99
29385;BME280;16367;48.736;9.218;2023-12-28T08:41:48;-23472.91;;;9.63;67.89
29385;BME280;16367;48.736;9.218;2023-12-28T08:50:05;-23467.22;;;9.45;69.43
29385;BME280;16367;48.736;9.218;2023-12-28T08:52:07;-23469.13;;;9.51;69.14
29385;BME280;16367;48.736;9.218;2023-12-28T08:54:08;-23470.22;;;9.55;69.21
29385;BME280;16367;48.736;9.218;2023-12-28T08:56:15;-23473.25;;;9.64;67.98
29385;BME280;16367;48.736;9.218;2023-12-28T08:58:18;-23471.03;;;9.57;67.76
29385;BME280;16367;48.736;9.218;2023-12-28T09:00:19;-23470.22;;;9.55;69.90
29385;BME280;16367;48.736;9.218;2023-12-28T09:02:21;-23479.25;;;9.84;67.07
29385;BME280;16367;48.736;9.218;2023-12-28T09:04:22;-23478.94;;;9.83;67.64
29385;BME280;16367;48.736;9.218;2023-12-28T09:06:24;-23482.44;;;9.94;67.27
29385;BME280;16367;48.736;9.218;2023-12-28T09:14:41;-23485.13;;;10.02;67.25
29385;BME280;16367;48.736;9.218;2023-12-28T09:16:42;-23486.41;;;10.06;67.73
29385;BME280;16367;48.736;9.218;2023-12-28T09:18:45;-23485.75;;;10.04;67.47
29385;BME280;16367;48.736;9.218;2023-12-28T09:20:47;-23487.19;;;10.09;68.33
29385;BME280;16367;48.736;9.218;2023-12-28T09:22:50;-23486.41;;;10.06;67.85
29385;BME280;16367;48.736;9.218;2023-12-28T09:24:56;-23487.50;;;10.10;68.17
29385;BME280;16367;48.736;9.218;2023-12-28T09:26:58;-23489.09;;;10.15;68.52
29385;BME280;16367;48.736;9.218;2023-12-28T09:28:59;-23490.22;;;10.18;68.12
29385;BME280;16367;48.736;9.218;2023-12-28T09:31:01;-23489.25;;;10.15;68.20
29385;BME280;16367;48.736;9.218;2023-12-28T09:39:17;-23485.91;;;10.05;67.52
29385;BME280;16367;48.736;9.218;2023-12-28T09:41:21;-23484.34;;;10.00;67.32
29385;BME280;16367;48.736;9.218;2023-12-28T09:43:30;-23482.75;;;9.95;67.87
29385;BME280;16367;48.736;9.218;2023-12-28T09:45:37;-23481.66;;;9.91;68.27
29385;BME280;16367;48.736;9.218;2023-12-28T09:47:39;-23480.84;;;9.89;68.07
29385;BME280;16367;48.736;9.218;2023-12-28T09:49:41;-23482.75;;;9.95;68.87
29385;BME280;16367;48.736;9.218;2023-12-28T09:51:46;-23483.72;;;9.98;68.48
29385;BME280;16367;48.736;9.218;2023-12-28T09:53:48;-23488.78;;;10.14;68.18
29385;BME280;16367;48.736;9.218;2023-12-28T09:55:50;-23490.03;;;10.18;66.93
29385;BME280;16367;48.736;9.218;2023-12-28T09:58:06;-23493.22;;;10.28;66.45
29385;BME280;16367;48.736;9.218;2023-12-28T10:00:08;-23495.28;;;10.34;66.31
29385;BME280;16367;48.736;9.218;2023-12-28T10:02:11;-23497.50;;;10.41;66.51
29385;BME280;16367;48.736;9.218;2023-12-28T10:04:14;-23497.97;;;10.43;66.28
29385;BME280;16367;48.736;9.218;2023-12-28T10:06:16;-23498.44;;;10.44;66.25
29385;BME280;16367;48.736;9.218;2023-12-28T10:08:18;-23501.78;;;10.55;66.23
29385;BME280;16367;48.736;9.218;2023-12-28T10:10:19;-23501.78;;;10.55;66.31
29385;BME280;16367;48.736;9.218;2023-12-28T10:12:23;-23498.13;;;10.43;66.30
29385;BME280;16367;48.736;9.218;2023-12-28T10:14:25;-23499.56;;;10.48;66.43
29385;BME280;16367;48.736;9.218;2023-12-28T10:19:09;-23502.25;;;10.57;66.83
29385;BME280;16367;48.736;9.218;2023-12-28T10:21:11;-23502.41;;;10.57;66.96
29385;BME280;16367;48.736;9.218;2023-12-28T10:23:12;-23498.75;;;10.45;67.45
29385;BME280;16367;48.736;9.218;2023-12-28T10:25:14;-23501.13;;;10.53;66.86
29385;BME280;16367;48.736;9.218;2023-12-28T10:27:15;-23499.88;;;10.49;67.24
29385;BME280;16367;48.736;9.218;2023-12-28T10:29:16;-23499.56;;;10.48;67.19
29385;BME280;16367;48.736;9.218;2023-12-28T10:31:20;-23501.63;;;10.55;67.16
29385;BME280;16367;48.736;9.218;2023-12-28T10:33:22;-23501.28;;;10.54;67.77
29385;BME280;16367;48.736;9.218;2023-12-28T10:38:32;-23505.56;;;10.67;68.28
29385;BME280;16367;48.736;9.218;2023-12-28T10:40:35;-23502.72;;;10.58;68.46
29385;BME280;16367;48.736;9.218;2023-12-28T10:42:49;-23503.19;;;10.60;68.99
29385;BME280;16367;48.736;9.218;2023-12-28T10:44:52;-23502.25;;;10.57;69.21
29385;BME280;16367;48.736;9.218;2023-12-28T10:46:58;-23500.50;;;10.51;70.08
29385;BME280;16367;48.736;9.218;2023-12-28T10:49:05;-23504.47;;;10.64;70.14
29385;BME280;16367;48.736;9.218;2023-12-28T10:51:11;-23506.06;;;10.69;70.41
29385;BME280;16367;48.736;9.218;2023-12-28T10:53:36;-23502.88;;;10.59;70.96
29385;BME280;16367;48.736;9.218;2023-12-28T11:01:55;-23509.38;;;10.79;72.30
29385;BME280;16367;48.736;9.218;2023-12-28T11:04:02;-23508.91;;;10.78;73.12
29385;BME280;16367;48.736;9.218;2023-12-28T11:06:06;-23512.38;;;10.89;73.19
29385;BME280;16367;48.736;9.218;2023-12-28T11:08:08;-23508.44;;;10.76;73.87
29385;BME280;16367;48.736;9.218;2023-12-28T11:10:11;-23509.06;;;10.78;74.19
29385;BME280;16367;48.736;9.218;2023-12-28T11:12:16;-23507.16;;;10.72;74.56
29385;BME280;16367;48.736;9.218;2023-12-28T11:14:19;-23507.94;;;10.75;75.25
29385;BME280;16367;48.736;9.218;2023-12-28T11:16:21;-23507.78;;;10.74;75.82
29385;BME280;16367;48.736;9.218;2023-12-28T11:18:25;-23510.31;;;10.82;75.12
29385;BME280;16367;48.736;9.218;2023-12-28T11:23:49;-23510.00;;;10.81;76.92
29385;BME280;16367;48.736;9.218;2023-12-28T11:25:51;-23512.06;;;10.88;77.23
29385;BME280;16367;48.736;9.218;2023-12-28T11:27:52;-23515.56;;;10.99;77.59
29385;BME280;16367;48.736;9.218;2023-12-28T11:29:53;-23511.59;;;10.86;78.19
29385;BME280;16367;48.736;9.218;2023-12-28T11:31:58;-23510.00;;;10.81;78.58
29385;BME280;16367;48.736;9.218;2023-12-28T11:33:59;-23514.75;;;10.96;78.64
29385;BME280;16367;48.736;9.218;2023-12-28T11:36:08;-23510.66;;;10.83;79.04
29385;BME280;16367;48.736;9.218;2023-12-28T11:38:11;-23511.59;;;10.86;80.09
29385;BME280;16367;48.736;9.218;2023-12-28T11:40:16;-23507.47;;;10.73;80.42
29385;BME280;16367;48.736;9.218;2023-12-28T11:48:31;-23509.38;;;10.79;81.18
29385;BME280;16367;48.736;9.218;2023-12-28T11:50:33;-23505.91;;;10.68;81.98
29385;BME280;16367;48.736;9.218;2023-12-28T11:52:34;-23504.94;;;10.65;81.29
29385;BME280;16367;48.736;9.218;2023-12-28T11:54:36;-23506.38;;;10.70;81.35
29385;BME280;16367;48.736;9.218;2023-12-28T11:56:37;-23502.72;;;10.58;81.96
29385;BME280;16367;48.736;9.218;2023-12-28T11:58:38;-23509.06;;;10.78;81.05
29385;BME280;16367;48.736;9.218;2023-12-28T12:00:40;-23508.75;;;10.77;80.90
29385;BME280;16367;48.736;9.218;2023-12-28T12:02:43;-23508.44;;;10.76;80.86
29385;BME280;16367;48.736;9.218;2023-12-28T12:04:45;-23505.56;;;10.67;80.72
29385;BME280;16367;48.736;9.218;2023-12-28T12:12:32;-23504.31;;;10.63;81.09
29385;BME280;16367;48.736;9.218;2023-12-28T12:14:34;-23507.78;;;10.74;80.89
29385;BME280;16367;48.736;9.218;2023-12-28T12:16:36;-23505.91;;;10.68;81.07
29385;BME280;16367;48.736;9.218;2023-12-28T12:18:38;-23507.63;;;10.74;80.29
29385;BME280;16367;48.736;9.218;2023-12-28T12:20:39;-23507.00;;;10.72;80.49
29385;BME280;16367;48.736;9.218;2023-12-28T12:22:41;-23503.03;;;10.59;81.17
29385;BME280;16367;48.736;9.218;2023-12-28T12:24:44;-23508.91;;;10.78;81.25
29385;BME280;16367;48.736;9.218;2023-12-28T12:26:46;-23507.16;;;10.72;80.63
29385;BME280;16367;48.736;9.218;2023-12-28T12:28:49;-23503.84;;;10.62;80.79
29385;BME280;16367;48.736;9.218;2023-12-28T12:33:12;-23504.00;;;10.62;81.40
29385;BME280;16367;48.736;9.218;2023-12-28T12:35:14;-23507.63;;;10.74;81.22
29385;BME280;16367;48.736;9.218;2023-12-28T12:37:15;-23505.56;;;10.67;80.68
29385;BME280;16367;48.736;9.218;2023-12-28T12:39:17;-23505.56;;;10.67;81.15
29385;BME280;16367;48.736;9.218;2023-12-28T12:41:18;-23504.94;;;10.65;81.33
29385;BME280;16367;48.736;9.218;2023-12-28T12:43:20;-23509.06;;;10.78;81.14
29385;BME280;16367;48.736;9.218;2023-12-28T12:45:23;-23506.22;;;10.69;80.74
29385;BME280;16367;48.736;9.218;2023-12-28T12:47:25;-23505.72;;;10.68;80.41
29385;BME280;16367;48.736;9.218;2023-12-28T12:49:27;-23506.53;;;10.70;80.38
29385;BME280;16367;48.736;9.218;2023-12-28T12:57:42;-23509.06;;;10.78;80.94
29385;BME280;16367;48.736;9.218;2023-12-28T12:59:46;-23507.00;;;10.72;81.37
29385;BME280;16367;48.736;9.218;2023-12-28T13:01:48;-23509.84;;;10.81;81.56
29385;BME280;16367;48.736;9.218;2023-12-28T13:03:50;-23507.94;;;10.75;81.41
29385;BME280;16367;48.736;9.218;2023-12-28T13:05:52;-23509.84;;;10.81;81.67
29385;BME280;16367;48.736;9.218;2023-12-28T13:07:53;-23505.25;;;10.66;82.06
29385;BME280;16367;48.736;9.218;2023-12-28T13:09:55;-23504.63;;;10.64;82.25
29385;BME280;16367;48.736;9.218;2023-12-28T13:11:56;-23505.72;;;10.68;82.92
29385;BME280;16367;48.736;9.218;2023-12-28T13:13:59;-23505.25;;;10.66;83.05
29385;BME280;16367;48.736;9.218;2023-12-28T13:20:14;-23503.19;;;10.60;83.96